createdAt,value
2017-12-28T00:00:48.042Z,981.89
2017-12-28T00:01:48.015Z,981.92
2017-12-28T00:02:47.939Z,981.89
2017-12-28T00:03:47.908Z,982.04
2017-12-28T00:04:47.881Z,981.97
2017-12-28T00:05:47.868Z,982.09
2017-12-28T00:06:47.786Z,982.15
2017-12-28T00:07:47.767Z,982.13
2017-12-28T00:08:47.751Z,982.12
2017-12-28T00:09:47.671Z,982.17
2017-12-28T00:10:47.622Z,982.11
2017-12-28T00:11:47.587Z,982.14
2017-12-28T00:12:47.611Z,982.24
2017-12-28T00:13:47.510Z,982.21
2017-12-28T00:14:47.568Z,982.28
2017-12-28T00:15:47.418Z,982.32
2017-12-28T00:16:47.444Z,982.27
2017-12-28T00:17:47.372Z,982.32
2017-12-28T00:18:47.319Z,982.30
2017-12-28T00:19:47.267Z,982.36
2017-12-28T00:20:47.237Z,982.38
2017-12-28T00:21:47.223Z,982.42
2017-12-28T00:22:47.145Z,982.44
2017-12-28T00:23:47.100Z,982.43
2017-12-28T00:24:47.057Z,982.47
2017-12-28T00:25:47.033Z,982.43
2017-12-28T00:26:46.997Z,982.41
2017-12-28T00:27:46.952Z,982.44
2017-12-28T00:28:46.937Z,982.43
2017-12-28T00:29:46.882Z,982.50
2017-12-28T00:30:46.841Z,982.53
2017-12-28T00:31:46.776Z,982.57
2017-12-28T00:32:46.828Z,982.52
2017-12-28T00:33:46.721Z,982.59
2017-12-28T00:34:46.707Z,982.55
2017-12-28T00:35:46.632Z,982.59
2017-12-28T00:36:46.617Z,982.67
2017-12-28T00:37:46.540Z,982.63
2017-12-28T00:38:46.533Z,982.63
2017-12-28T00:39:46.455Z,982.71
2017-12-28T00:40:46.457Z,982.65
2017-12-28T00:41:46.409Z,982.66
2017-12-28T00:42:46.358Z,982.65
2017-12-28T00:43:46.374Z,982.72
2017-12-28T00:44:46.313Z,982.61
2017-12-28T00:45:46.230Z,982.71
2017-12-28T00:46:46.190Z,982.71
2017-12-28T00:47:46.140Z,982.73
2017-12-28T00:48:46.097Z,982.74
2017-12-28T00:49:46.127Z,982.81
2017-12-28T00:50:46.055Z,982.75
2017-12-28T00:51:45.978Z,982.76
2017-12-28T00:52:45.995Z,982.79
2017-12-28T00:53:45.941Z,982.74
2017-12-28T00:54:45.919Z,982.82
2017-12-28T00:55:45.839Z,982.78
2017-12-28T00:56:45.790Z,982.82
2017-12-28T00:57:45.750Z,982.82
2017-12-28T00:58:45.695Z,982.77
2017-12-28T00:59:46.008Z,982.75
2017-12-28T01:00:45.651Z,982.87
2017-12-28T01:01:45.596Z,982.89
2017-12-28T01:02:45.553Z,982.85
2017-12-28T01:03:45.505Z,982.97
2017-12-28T01:04:45.501Z,982.95
2017-12-28T01:05:45.439Z,982.90
2017-12-28T01:06:45.411Z,982.98
2017-12-28T01:07:45.363Z,982.94
2017-12-28T01:08:45.299Z,982.99
2017-12-28T01:09:45.258Z,982.94
2017-12-28T01:10:45.239Z,983.02
2017-12-28T01:11:45.221Z,983.08
2017-12-28T01:12:45.141Z,982.99
2017-12-28T01:13:47.558Z,983.03
2017-12-28T01:14:46.523Z,983.11
2017-12-28T01:15:46.022Z,983.12
2017-12-28T01:16:44.978Z,983.04
2017-12-28T01:17:44.969Z,983.11
2017-12-28T01:18:44.948Z,983.17
2017-12-28T01:19:44.857Z,983.18
2017-12-28T01:20:44.819Z,983.26
2017-12-28T01:21:44.804Z,983.28
2017-12-28T01:22:44.735Z,983.27
2017-12-28T01:23:44.695Z,983.27
2017-12-28T01:24:44.655Z,983.34
2017-12-28T01:25:44.627Z,983.32
2017-12-28T01:26:44.586Z,983.41
2017-12-28T01:27:44.537Z,983.35
2017-12-28T01:28:44.493Z,983.25
2017-12-28T01:29:44.514Z,983.43
2017-12-28T01:30:44.455Z,983.38
2017-12-28T01:31:44.378Z,983.38
2017-12-28T01:32:44.335Z,983.44
2017-12-28T01:33:44.318Z,983.44
2017-12-28T01:34:44.299Z,983.43
2017-12-28T01:35:44.227Z,983.46
2017-12-28T01:36:44.175Z,983.46
2017-12-28T01:37:44.156Z,983.45
2017-12-28T01:38:44.124Z,983.49
2017-12-28T01:39:44.126Z,983.51
2017-12-28T01:40:44.013Z,983.49
2017-12-28T01:41:43.985Z,983.52
2017-12-28T01:42:43.947Z,983.57
2017-12-28T01:43:43.895Z,983.54
2017-12-28T01:44:43.866Z,983.53
2017-12-28T01:45:44.522Z,983.61
2017-12-28T01:46:43.771Z,983.56
2017-12-28T01:47:43.757Z,983.67
2017-12-28T01:48:43.770Z,983.60
2017-12-28T01:49:44.179Z,983.60
2017-12-28T01:50:43.616Z,983.61
2017-12-28T01:51:43.712Z,983.73
2017-12-28T01:52:43.530Z,983.75
2017-12-28T01:53:43.516Z,983.74
2017-12-28T01:54:43.495Z,983.65
2017-12-28T01:55:43.429Z,983.67
2017-12-28T01:56:43.376Z,983.72
2017-12-28T01:57:43.373Z,983.73
2017-12-28T01:58:43.316Z,983.84
2017-12-28T01:59:43.251Z,983.80
2017-12-28T02:00:43.224Z,983.84
2017-12-28T02:01:43.200Z,983.80
2017-12-28T02:02:43.165Z,983.91
2017-12-28T02:03:43.090Z,983.82
2017-12-28T02:04:43.074Z,983.90
2017-12-28T02:05:43.007Z,983.91
2017-12-28T02:06:42.963Z,983.81
2017-12-28T02:07:42.927Z,983.98
2017-12-28T02:08:42.886Z,983.92
2017-12-28T02:09:42.851Z,983.90
2017-12-28T02:10:42.829Z,983.97
2017-12-28T02:11:42.801Z,983.96
2017-12-28T02:12:42.724Z,983.97
2017-12-28T02:13:42.692Z,984.07
2017-12-28T02:14:42.678Z,984.06
2017-12-28T02:15:42.645Z,984.07
2017-12-28T02:16:42.583Z,984.11
2017-12-28T02:17:42.545Z,984.09
2017-12-28T02:18:42.483Z,984.16
2017-12-28T02:19:42.442Z,984.17
2017-12-28T02:20:42.452Z,984.06
2017-12-28T02:21:42.360Z,984.17
2017-12-28T02:22:42.358Z,984.16
2017-12-28T02:23:42.336Z,984.08
2017-12-28T02:24:42.246Z,984.25
2017-12-28T02:25:42.198Z,984.22
2017-12-28T02:26:42.158Z,984.28
2017-12-28T02:27:42.130Z,984.27
2017-12-28T02:28:42.090Z,984.22
2017-12-28T02:29:42.046Z,984.33
2017-12-28T02:30:42.054Z,984.31
2017-12-28T02:31:41.958Z,984.33
2017-12-28T02:32:41.983Z,984.40
2017-12-28T02:33:41.875Z,984.44
2017-12-28T02:34:41.914Z,984.43
2017-12-28T02:35:41.792Z,984.37
2017-12-28T02:36:41.761Z,984.40
2017-12-28T02:37:41.727Z,984.41
2017-12-28T02:38:41.686Z,984.49
2017-12-28T02:39:41.675Z,984.54
2017-12-28T02:40:41.592Z,984.48
2017-12-28T02:41:42.225Z,984.43
2017-12-28T02:42:41.526Z,984.57
2017-12-28T02:43:41.539Z,984.59
2017-12-28T02:44:41.431Z,984.47
2017-12-28T02:45:41.390Z,984.59
2017-12-28T02:46:41.375Z,984.60
2017-12-28T02:47:41.311Z,984.52
2017-12-28T02:48:41.281Z,984.67
2017-12-28T02:49:41.243Z,984.68
2017-12-28T02:50:41.208Z,984.58
2017-12-28T02:51:41.162Z,984.68
2017-12-28T02:52:41.167Z,984.76
2017-12-28T02:53:41.094Z,984.73
2017-12-28T02:54:41.086Z,984.73
2017-12-28T02:55:40.991Z,984.75
2017-12-28T02:56:40.966Z,984.72
2017-12-28T02:57:40.903Z,984.87
2017-12-28T02:58:40.866Z,984.78
2017-12-28T02:59:40.860Z,984.81
2017-12-28T03:00:40.806Z,984.84
2017-12-28T03:01:40.754Z,984.93
2017-12-28T03:02:40.745Z,984.94
2017-12-28T03:03:40.671Z,984.89
2017-12-28T03:04:40.644Z,984.96
2017-12-28T03:05:40.587Z,985.00
2017-12-28T03:06:40.583Z,984.95
2017-12-28T03:07:40.500Z,984.89
2017-12-28T03:08:40.478Z,985.06
2017-12-28T03:09:40.465Z,985.02
2017-12-28T03:10:40.440Z,984.88
2017-12-28T03:11:40.366Z,985.10
2017-12-28T03:12:40.314Z,985.07
2017-12-28T03:13:40.268Z,984.92
2017-12-28T03:14:40.235Z,984.97
2017-12-28T03:15:40.190Z,985.05
2017-12-28T03:16:40.133Z,985.16
2017-12-28T03:17:40.102Z,985.11
2017-12-28T03:18:40.233Z,985.16
2017-12-28T03:19:40.011Z,985.14
2017-12-28T03:20:39.973Z,985.19
2017-12-28T03:21:39.985Z,985.21
2017-12-28T03:22:39.907Z,985.25
2017-12-28T03:23:39.859Z,985.27
2017-12-28T03:24:39.854Z,985.25
2017-12-28T03:25:39.765Z,985.21
2017-12-28T03:26:39.725Z,985.28
2017-12-28T03:27:39.703Z,985.12
2017-12-28T03:28:39.656Z,985.27
2017-12-28T03:29:39.616Z,985.24
2017-12-28T03:30:39.833Z,985.32
2017-12-28T03:31:39.532Z,985.28
2017-12-28T03:32:39.489Z,985.24
2017-12-28T03:33:39.442Z,985.25
2017-12-28T03:34:39.418Z,985.31
2017-12-28T03:35:39.359Z,985.35
2017-12-28T03:36:39.319Z,985.35
2017-12-28T03:37:39.282Z,985.36
2017-12-28T03:38:39.268Z,985.29
2017-12-28T03:39:39.217Z,985.31
2017-12-28T03:40:39.186Z,985.19
2017-12-28T03:41:39.164Z,985.29
2017-12-28T03:42:39.075Z,985.36
2017-12-28T03:43:39.045Z,985.43
2017-12-28T03:44:38.996Z,985.38
2017-12-28T03:45:38.957Z,985.41
2017-12-28T03:46:38.913Z,985.46
2017-12-28T03:47:38.904Z,985.49
2017-12-28T03:48:38.855Z,985.42
2017-12-28T03:49:38.804Z,985.48
2017-12-28T03:50:38.762Z,985.41
2017-12-28T03:51:38.723Z,985.50
2017-12-28T03:52:38.695Z,985.51
2017-12-28T03:53:38.662Z,985.50
2017-12-28T03:54:38.592Z,985.50
2017-12-28T03:55:38.565Z,985.56
2017-12-28T03:56:38.505Z,985.59
2017-12-28T03:57:38.467Z,985.64
2017-12-28T03:58:38.430Z,985.53
2017-12-28T03:59:38.481Z,985.56
2017-12-28T04:00:38.358Z,985.63
2017-12-28T04:01:38.304Z,985.59
2017-12-28T04:02:38.295Z,985.54
2017-12-28T04:03:38.248Z,985.63
2017-12-28T04:04:38.182Z,985.55
2017-12-28T04:05:38.179Z,985.31
2017-12-28T04:06:38.144Z,985.63
2017-12-28T04:07:38.064Z,985.67
2017-12-28T04:08:38.037Z,985.73
2017-12-28T04:09:37.977Z,985.77
2017-12-28T04:10:37.940Z,985.71
2017-12-28T04:11:37.906Z,985.72
2017-12-28T04:12:37.855Z,985.79
2017-12-28T04:13:37.837Z,985.80
2017-12-28T04:14:37.788Z,985.77
2017-12-28T04:15:37.761Z,985.72
2017-12-28T04:16:37.717Z,985.72
2017-12-28T04:17:37.660Z,985.78
2017-12-28T04:18:37.615Z,985.86
2017-12-28T04:19:37.599Z,985.86
2017-12-28T04:20:37.547Z,985.79
2017-12-28T04:21:37.526Z,985.80
2017-12-28T04:22:37.497Z,985.83
2017-12-28T04:23:37.521Z,985.89
2017-12-28T04:24:37.410Z,985.76
2017-12-28T04:25:37.331Z,985.80
2017-12-28T04:26:37.358Z,985.86
2017-12-28T04:27:37.271Z,985.88
2017-12-28T04:28:37.396Z,985.87
2017-12-28T04:29:37.184Z,985.87
2017-12-28T04:30:37.133Z,985.84
2017-12-28T04:31:37.088Z,985.92
2017-12-28T04:32:37.074Z,985.90
2017-12-28T04:33:37.047Z,985.96
2017-12-28T04:34:36.988Z,985.96
2017-12-28T04:35:36.926Z,985.96
2017-12-28T04:36:36.940Z,985.98
2017-12-28T04:37:36.850Z,986.03
2017-12-28T04:38:36.818Z,986.05
2017-12-28T04:39:36.787Z,986.05
2017-12-28T04:40:36.727Z,986.12
2017-12-28T04:41:36.693Z,986.13
2017-12-28T04:42:36.666Z,986.13
2017-12-28T04:43:36.633Z,986.08
2017-12-28T04:44:36.596Z,986.20
2017-12-28T04:45:36.534Z,986.13
2017-12-28T04:46:36.501Z,986.23
2017-12-28T04:47:36.496Z,986.16
2017-12-28T04:48:36.446Z,986.20
2017-12-28T04:49:36.359Z,986.28
2017-12-28T04:50:36.314Z,986.24
2017-12-28T04:51:36.309Z,986.36
2017-12-28T04:52:36.234Z,986.30
2017-12-28T04:53:36.225Z,986.27
2017-12-28T04:54:36.154Z,986.32
2017-12-28T04:55:36.285Z,986.45
2017-12-28T04:56:36.092Z,986.36
2017-12-28T04:57:36.059Z,986.42
2017-12-28T04:58:36.001Z,986.43
2017-12-28T04:59:35.950Z,986.44
2017-12-28T05:00:36.511Z,986.33
2017-12-28T05:01:35.867Z,986.42
2017-12-28T05:02:35.827Z,986.42
2017-12-28T05:03:35.804Z,986.37
2017-12-28T05:04:35.775Z,986.50
2017-12-28T05:05:35.707Z,986.49
2017-12-28T05:06:35.664Z,986.30
2017-12-28T05:07:35.639Z,986.46
2017-12-28T05:08:35.585Z,986.45
2017-12-28T05:09:35.545Z,986.51
2017-12-28T05:10:35.511Z,986.47
2017-12-28T05:11:35.466Z,986.44
2017-12-28T05:12:35.925Z,986.43
2017-12-28T05:13:35.392Z,986.55
2017-12-28T05:14:35.341Z,986.45
2017-12-28T05:15:35.331Z,986.56
2017-12-28T05:16:35.289Z,986.41
2017-12-28T05:17:35.247Z,986.61
2017-12-28T05:18:35.177Z,986.54
2017-12-28T05:19:35.136Z,986.54
2017-12-28T05:20:35.121Z,986.60
2017-12-28T05:21:35.068Z,986.50
2017-12-28T05:22:35.016Z,986.58
2017-12-28T05:23:34.999Z,986.65
2017-12-28T05:24:34.933Z,986.58
2017-12-28T05:25:34.909Z,986.70
2017-12-28T05:26:34.863Z,986.72
2017-12-28T05:27:34.813Z,986.69
2017-12-28T05:28:34.771Z,986.76
2017-12-28T05:29:34.731Z,986.65
2017-12-28T05:30:34.698Z,986.77
2017-12-28T05:31:34.651Z,986.78
2017-12-28T05:32:34.612Z,986.74
2017-12-28T05:33:34.571Z,986.79
2017-12-28T05:34:34.543Z,986.82
2017-12-28T05:35:34.530Z,986.76
2017-12-28T05:36:34.488Z,986.86
2017-12-28T05:37:34.421Z,986.94
2017-12-28T05:38:34.364Z,986.97
2017-12-28T05:39:34.358Z,986.95
2017-12-28T05:40:34.331Z,986.95
2017-12-28T05:41:34.266Z,986.96
2017-12-28T05:42:34.258Z,986.86
2017-12-28T05:43:34.188Z,986.94
2017-12-28T05:44:34.120Z,987.00
2017-12-28T05:45:34.095Z,987.04
2017-12-28T05:46:34.040Z,987.06
2017-12-28T05:47:34.001Z,987.10
2017-12-28T05:48:33.989Z,987.14
2017-12-28T05:49:33.920Z,987.20
2017-12-28T05:50:33.880Z,987.18
2017-12-28T05:51:33.842Z,987.21
2017-12-28T05:52:33.807Z,987.30
2017-12-28T05:53:33.757Z,987.35
2017-12-28T05:54:33.728Z,987.40
2017-12-28T05:55:33.684Z,987.41
2017-12-28T05:56:33.635Z,987.42
2017-12-28T05:57:33.610Z,987.41
2017-12-28T05:58:33.554Z,987.40
2017-12-28T05:59:33.553Z,987.43
2017-12-28T06:00:33.522Z,987.39
2017-12-28T06:01:33.471Z,987.36
2017-12-28T06:02:33.412Z,987.44
2017-12-28T06:03:33.400Z,987.51
2017-12-28T06:04:33.339Z,987.55
2017-12-28T06:05:33.270Z,987.62
2017-12-28T06:06:33.230Z,987.55
2017-12-28T06:07:33.220Z,987.57
2017-12-28T06:08:33.151Z,987.61
2017-12-28T06:09:33.111Z,987.63
2017-12-28T06:10:33.071Z,987.65
2017-12-28T06:11:33.080Z,987.68
2017-12-28T06:12:33.001Z,987.71
2017-12-28T06:13:32.971Z,987.69
2017-12-28T06:14:32.927Z,987.82
2017-12-28T06:15:32.868Z,987.78
2017-12-28T06:16:32.825Z,987.80
2017-12-28T06:17:32.788Z,987.88
2017-12-28T06:18:32.746Z,987.91
2017-12-28T06:19:32.713Z,987.92
2017-12-28T06:20:32.662Z,987.88
2017-12-28T06:21:32.633Z,987.86
2017-12-28T06:22:32.591Z,987.95
2017-12-28T06:23:32.542Z,987.95
2017-12-28T06:24:32.505Z,987.95
2017-12-28T06:25:32.493Z,988.02
2017-12-28T06:26:32.435Z,987.99
2017-12-28T06:27:32.393Z,988.12
2017-12-28T06:28:32.362Z,988.13
2017-12-28T06:29:32.300Z,988.13
2017-12-28T06:30:32.263Z,988.18
2017-12-28T06:31:32.240Z,988.19
2017-12-28T06:32:32.180Z,988.16
2017-12-28T06:33:32.158Z,988.21
2017-12-28T06:34:32.108Z,988.12
2017-12-28T06:35:32.082Z,988.24
2017-12-28T06:36:32.049Z,988.21
2017-12-28T06:37:32.301Z,988.19
2017-12-28T06:38:31.934Z,988.31
2017-12-28T06:39:31.904Z,988.34
2017-12-28T06:40:31.851Z,988.40
2017-12-28T06:41:31.818Z,988.37
2017-12-28T06:42:31.794Z,988.38
2017-12-28T06:43:31.741Z,988.37
2017-12-28T06:44:31.716Z,988.44
2017-12-28T06:45:31.664Z,988.42
2017-12-28T06:46:31.616Z,988.28
2017-12-28T06:47:31.585Z,988.24
2017-12-28T06:48:31.560Z,988.24
2017-12-28T06:49:31.516Z,988.33
2017-12-28T06:50:31.484Z,988.39
2017-12-28T06:51:31.422Z,988.42
2017-12-28T06:52:31.380Z,988.37
2017-12-28T06:53:31.359Z,988.56
2017-12-28T06:54:31.284Z,988.56
2017-12-28T06:55:31.251Z,988.49
2017-12-28T06:56:31.228Z,988.53
2017-12-28T06:57:31.179Z,988.59
2017-12-28T06:58:31.117Z,988.49
2017-12-28T06:59:31.077Z,988.44
2017-12-28T07:00:31.034Z,988.45
2017-12-28T07:01:31.004Z,988.46
2017-12-28T07:02:31.032Z,988.40
2017-12-28T07:03:30.913Z,988.56
2017-12-28T07:04:30.871Z,988.51
2017-12-28T07:05:30.837Z,988.58
2017-12-28T07:06:30.788Z,988.46
2017-12-28T07:07:30.749Z,988.46
2017-12-28T07:08:30.706Z,988.59
2017-12-28T07:09:30.666Z,988.39
2017-12-28T07:10:30.624Z,988.51
2017-12-28T07:11:30.582Z,988.53
2017-12-28T07:12:30.541Z,988.52
2017-12-28T07:13:30.502Z,988.50
2017-12-28T07:14:30.460Z,988.55
2017-12-28T07:15:30.419Z,988.56
2017-12-28T07:16:30.377Z,988.55
2017-12-28T07:17:30.337Z,988.54
2017-12-28T07:18:30.295Z,988.61
2017-12-28T07:19:30.253Z,988.68
2017-12-28T07:20:30.211Z,988.69
2017-12-28T07:21:30.172Z,988.65
2017-12-28T07:22:30.130Z,988.75
2017-12-28T07:23:30.089Z,988.69
2017-12-28T07:24:30.047Z,988.71
2017-12-28T07:25:30.006Z,988.77
2017-12-28T07:26:29.965Z,988.78
2017-12-28T07:27:29.925Z,988.79
2017-12-28T07:28:29.882Z,988.85
2017-12-28T07:29:29.841Z,988.78
2017-12-28T07:30:29.800Z,988.81
2017-12-28T07:31:29.760Z,988.85
2017-12-28T07:32:29.721Z,988.78
2017-12-28T07:33:29.678Z,988.88
2017-12-28T07:34:29.642Z,988.91
2017-12-28T07:35:29.599Z,988.92
2017-12-28T07:36:29.554Z,988.85
2017-12-28T07:37:29.511Z,988.85
2017-12-28T07:38:29.472Z,988.70
2017-12-28T07:39:29.428Z,988.75
2017-12-28T07:40:29.387Z,988.79
2017-12-28T07:41:29.345Z,988.77
2017-12-28T07:42:29.307Z,988.95
2017-12-28T07:43:29.266Z,988.90
2017-12-28T07:44:29.224Z,988.91
2017-12-28T07:45:29.182Z,988.98
2017-12-28T07:46:29.148Z,989.03
2017-12-28T07:47:29.101Z,989.02
2017-12-28T07:48:29.060Z,989.06
2017-12-28T07:49:29.017Z,989.09
2017-12-28T07:50:28.980Z,988.97
2017-12-28T07:51:31.600Z,989.13
2017-12-28T07:52:28.896Z,988.99
2017-12-28T07:53:28.856Z,989.02
2017-12-28T07:54:28.813Z,989.05
2017-12-28T07:55:28.793Z,989.17
2017-12-28T07:56:28.731Z,989.07
2017-12-28T07:57:28.689Z,989.14
2017-12-28T07:58:28.650Z,988.96
2017-12-28T07:59:29.266Z,989.06
2017-12-28T08:00:28.569Z,989.09
2017-12-28T08:01:28.529Z,989.14
2017-12-28T08:02:28.485Z,989.19
2017-12-28T08:03:28.496Z,989.10
2017-12-28T08:04:28.402Z,989.21
2017-12-28T08:05:28.506Z,989.22
2017-12-28T08:06:28.324Z,989.21
2017-12-28T08:07:28.281Z,989.21
2017-12-28T08:08:28.238Z,989.22
2017-12-28T08:09:28.198Z,989.24
2017-12-28T08:10:28.157Z,989.33
2017-12-28T08:11:28.117Z,989.27
2017-12-28T08:12:28.075Z,989.20
2017-12-28T08:13:28.035Z,989.31
2017-12-28T08:14:27.992Z,989.34
2017-12-28T08:15:27.983Z,989.37
2017-12-28T08:16:27.913Z,989.21
2017-12-28T08:17:27.870Z,989.27
2017-12-28T08:18:27.829Z,989.36
2017-12-28T08:19:27.789Z,989.38
2017-12-28T08:20:27.745Z,989.14
2017-12-28T08:21:27.703Z,989.40
2017-12-28T08:22:27.666Z,989.42
2017-12-28T08:23:27.625Z,989.37
2017-12-28T08:24:27.582Z,989.33
2017-12-28T08:25:27.881Z,989.36
2017-12-28T08:26:27.502Z,989.48
2017-12-28T08:27:27.460Z,989.37
2017-12-28T08:28:27.420Z,989.42
2017-12-28T08:29:27.380Z,989.47
2017-12-28T08:30:27.339Z,989.43
2017-12-28T08:31:27.299Z,989.33
2017-12-28T08:32:27.253Z,989.51
2017-12-28T08:33:27.215Z,989.53
2017-12-28T08:34:27.173Z,989.31
2017-12-28T08:35:27.134Z,989.44
2017-12-28T08:36:27.092Z,989.35
2017-12-28T08:37:27.049Z,989.35
2017-12-28T08:38:27.010Z,989.44
2017-12-28T08:39:26.970Z,989.47
2017-12-28T08:40:26.929Z,989.51
2017-12-28T08:41:26.887Z,989.52
2017-12-28T08:42:26.847Z,989.50
2017-12-28T08:43:26.805Z,989.50
2017-12-28T08:44:26.762Z,989.49
2017-12-28T08:45:26.721Z,989.57
2017-12-28T08:46:26.694Z,989.64
2017-12-28T08:47:26.645Z,989.69
2017-12-28T08:48:26.600Z,989.58
2017-12-28T08:49:27.505Z,989.73
2017-12-28T08:50:26.520Z,989.74
2017-12-28T08:51:26.478Z,989.66
2017-12-28T08:52:26.440Z,989.63
2017-12-28T08:53:26.423Z,989.67
2017-12-28T08:54:26.354Z,989.67
2017-12-28T08:55:26.316Z,989.74
2017-12-28T08:56:26.275Z,989.66
2017-12-28T08:57:26.229Z,989.78
2017-12-28T08:58:26.193Z,989.70
2017-12-28T08:59:26.150Z,989.82
2017-12-28T09:00:26.110Z,989.79
2017-12-28T09:01:26.070Z,989.82
2017-12-28T09:02:26.029Z,989.84
2017-12-28T09:03:26.066Z,989.85
2017-12-28T09:04:26.082Z,989.83
2017-12-28T09:05:25.908Z,989.88
2017-12-28T09:06:25.866Z,989.95
2017-12-28T09:07:25.825Z,989.93
2017-12-28T09:08:25.783Z,989.88
2017-12-28T09:09:25.743Z,989.91
2017-12-28T09:10:25.725Z,989.88
2017-12-28T09:11:25.663Z,989.98
2017-12-28T09:12:25.620Z,989.96
2017-12-28T09:13:25.581Z,989.98
2017-12-28T09:14:25.540Z,989.99
2017-12-28T09:15:25.499Z,989.90
2017-12-28T09:16:25.457Z,990.03
2017-12-28T09:17:25.418Z,989.99
2017-12-28T09:18:25.374Z,990.11
2017-12-28T09:19:25.337Z,990.03
2017-12-28T09:20:25.302Z,990.13
2017-12-28T09:21:25.256Z,990.13
2017-12-28T09:22:25.214Z,990.10
2017-12-28T09:23:25.170Z,990.09
2017-12-28T09:24:25.133Z,990.14
2017-12-28T09:25:25.093Z,990.16
2017-12-28T09:26:25.051Z,989.92
2017-12-28T09:27:25.011Z,990.07
2017-12-28T09:28:24.969Z,990.14
2017-12-28T09:29:24.930Z,990.20
2017-12-28T09:30:24.894Z,990.27
2017-12-28T09:31:24.852Z,990.37
2017-12-28T09:32:24.826Z,990.44
2017-12-28T09:33:24.768Z,990.37
2017-12-28T09:34:24.731Z,990.31
2017-12-28T09:35:24.689Z,990.54
2017-12-28T09:36:24.651Z,990.55
2017-12-28T09:37:24.613Z,990.37
2017-12-28T09:38:24.575Z,990.55
2017-12-28T09:39:24.539Z,990.66
2017-12-28T09:40:24.499Z,990.65
2017-12-28T09:41:24.462Z,990.60
2017-12-28T09:42:24.427Z,990.73
2017-12-28T09:43:24.392Z,990.55
2017-12-28T09:44:24.355Z,990.75
2017-12-28T09:45:24.318Z,990.33
2017-12-28T09:46:24.285Z,990.25
2017-12-28T09:47:24.304Z,990.32
2017-12-28T09:48:24.216Z,990.19
2017-12-28T09:49:24.181Z,990.25
2017-12-28T09:50:24.145Z,990.10
2017-12-28T09:51:24.111Z,990.08
2017-12-28T09:52:24.075Z,990.36
2017-12-28T09:53:24.039Z,990.30
2017-12-28T09:54:24.001Z,990.33
2017-12-28T09:55:23.962Z,990.41
2017-12-28T09:56:23.925Z,990.40
2017-12-28T09:57:23.901Z,990.39
2017-12-28T09:58:23.854Z,990.41
2017-12-28T09:59:23.811Z,990.43
2017-12-28T10:00:23.776Z,990.36
2017-12-28T10:01:23.739Z,990.44
2017-12-28T10:02:23.701Z,990.41
2017-12-28T10:03:23.667Z,990.18
2017-12-28T10:04:23.628Z,990.41
2017-12-28T10:05:23.904Z,990.62
2017-12-28T10:06:23.549Z,990.78
2017-12-28T10:07:23.513Z,990.53
2017-12-28T10:08:23.475Z,992.57
2017-12-28T10:09:23.438Z,990.55
2017-12-28T10:10:23.399Z,992.94
2017-12-28T10:11:24.210Z,990.89
2017-12-28T10:12:23.325Z,990.60
2017-12-28T10:13:23.287Z,990.48
2017-12-28T10:14:23.252Z,990.68
2017-12-28T10:15:23.216Z,990.55
2017-12-28T10:16:23.177Z,990.60
2017-12-28T10:17:23.143Z,990.58
2017-12-28T10:18:23.107Z,991.33
2017-12-28T10:19:23.068Z,990.59
2017-12-28T10:20:23.032Z,990.68
2017-12-28T10:21:22.994Z,990.69
2017-12-28T10:22:22.959Z,990.67
2017-12-28T10:23:22.922Z,990.59
2017-12-28T10:24:22.885Z,990.79
2017-12-28T10:25:22.851Z,992.98
2017-12-28T10:26:22.814Z,993.53
2017-12-28T10:27:22.780Z,993.33
2017-12-28T10:28:22.744Z,993.59
2017-12-28T10:29:22.709Z,993.87
2017-12-28T10:30:22.678Z,993.98
2017-12-28T10:31:22.646Z,994.47
2017-12-28T10:32:22.617Z,991.15
2017-12-28T10:33:22.588Z,991.12
2017-12-28T10:34:22.556Z,993.71
2017-12-28T10:35:22.822Z,993.18
2017-12-28T10:36:22.495Z,991.65
2017-12-28T10:37:22.466Z,991.01
2017-12-28T10:38:22.435Z,991.49
2017-12-28T10:39:22.408Z,990.88
2017-12-28T10:40:22.375Z,991.12
2017-12-28T10:41:22.348Z,993.03
2017-12-28T10:42:22.318Z,993.14
2017-12-28T10:43:22.287Z,992.35
2017-12-28T10:44:22.257Z,991.00
2017-12-28T10:45:22.227Z,993.81
2017-12-28T10:46:22.196Z,990.87
2017-12-28T10:47:22.167Z,994.91
2017-12-28T10:48:22.133Z,991.73
2017-12-28T10:49:22.106Z,990.84
2017-12-28T10:50:22.073Z,992.72
2017-12-28T10:51:22.043Z,992.04
2017-12-28T10:52:22.010Z,992.06
2017-12-28T10:53:21.976Z,990.90
2017-12-28T10:54:21.945Z,990.82
2017-12-28T10:55:21.914Z,990.92
2017-12-28T10:56:21.878Z,990.98
2017-12-28T10:57:21.849Z,992.36
2017-12-28T10:58:21.818Z,991.58
2017-12-28T10:59:21.782Z,991.08
2017-12-28T11:00:21.746Z,991.80
2017-12-28T11:01:21.717Z,991.61
2017-12-28T11:02:21.679Z,990.97
2017-12-28T11:03:21.728Z,991.14
2017-12-28T11:04:21.608Z,991.04
2017-12-28T11:05:21.577Z,991.04
2017-12-28T11:06:21.539Z,991.59
2017-12-28T11:07:21.507Z,991.33
2017-12-28T11:08:21.476Z,991.48
2017-12-28T11:09:21.439Z,991.37
2017-12-28T11:10:21.403Z,991.24
2017-12-28T11:11:21.364Z,991.08
2017-12-28T11:12:21.325Z,991.18
2017-12-28T11:13:21.294Z,991.17
2017-12-28T11:14:21.261Z,991.31
2017-12-28T11:15:21.226Z,991.31
2017-12-28T11:16:21.187Z,990.94
2017-12-28T11:17:21.157Z,991.07
2017-12-28T11:18:21.120Z,991.07
2017-12-28T11:19:21.086Z,991.20
2017-12-28T11:20:21.049Z,991.30
2017-12-28T11:21:21.014Z,991.24
2017-12-28T11:22:20.977Z,991.23
2017-12-28T11:23:20.941Z,991.21
2017-12-28T11:24:20.905Z,991.35
2017-12-28T11:25:20.868Z,991.29
2017-12-28T11:26:20.833Z,991.64
2017-12-28T11:27:20.799Z,991.44
2017-12-28T11:28:20.759Z,991.62
2017-12-28T11:29:20.723Z,991.30
2017-12-28T11:30:20.689Z,991.32
2017-12-28T11:31:20.656Z,991.30
2017-12-28T11:32:20.615Z,991.21
2017-12-28T11:33:20.581Z,991.27
2017-12-28T11:34:20.543Z,991.28
2017-12-28T11:35:20.506Z,991.31
2017-12-28T11:36:20.470Z,991.34
2017-12-28T11:37:20.432Z,991.28
2017-12-28T11:38:20.399Z,991.44
2017-12-28T11:39:20.361Z,991.31
2017-12-28T11:40:20.320Z,991.26
2017-12-28T11:41:20.287Z,991.41
2017-12-28T11:42:20.247Z,991.48
2017-12-28T11:43:20.209Z,991.36
2017-12-28T11:44:20.169Z,991.24
2017-12-28T11:45:20.131Z,991.35
2017-12-28T11:46:20.095Z,991.46
2017-12-28T11:47:20.056Z,991.31
2017-12-28T11:48:20.017Z,991.42
2017-12-28T11:49:19.982Z,991.48
2017-12-28T11:50:19.944Z,991.92
2017-12-28T11:51:19.905Z,991.46
2017-12-28T11:52:19.867Z,991.57
2017-12-28T11:53:19.828Z,991.63
2017-12-28T11:54:19.790Z,991.61
2017-12-28T11:55:19.754Z,991.54
2017-12-28T11:56:19.744Z,991.49
2017-12-28T11:57:19.679Z,991.49
2017-12-28T11:58:19.657Z,991.80
2017-12-28T11:59:19.858Z,991.68
2017-12-28T12:00:19.566Z,991.74
2017-12-28T12:01:19.530Z,991.63
2017-12-28T12:02:19.493Z,991.60
2017-12-28T12:03:19.452Z,991.67
2017-12-28T12:04:19.421Z,991.68
2017-12-28T12:05:19.402Z,991.58
2017-12-28T12:06:19.345Z,991.54
2017-12-28T12:07:19.306Z,991.68
2017-12-28T12:08:19.269Z,991.59
2017-12-28T12:09:19.234Z,991.67
2017-12-28T12:10:19.226Z,991.63
2017-12-28T12:11:19.230Z,991.63
2017-12-28T12:12:19.230Z,991.75
2017-12-28T12:13:19.089Z,991.69
2017-12-28T12:14:19.076Z,991.70
2017-12-28T12:15:19.110Z,991.56
2017-12-28T12:16:18.978Z,991.65
2017-12-28T12:17:18.942Z,991.58
2017-12-28T12:18:18.902Z,991.55
2017-12-28T12:19:18.868Z,991.53
2017-12-28T12:20:18.832Z,991.56
2017-12-28T12:21:18.793Z,991.41
2017-12-28T12:22:18.756Z,991.58
2017-12-28T12:23:18.718Z,991.58
2017-12-28T12:24:18.676Z,991.48
2017-12-28T12:25:18.641Z,991.48
2017-12-28T12:26:18.603Z,991.54
2017-12-28T12:27:18.565Z,991.52
2017-12-28T12:28:18.528Z,991.63